sensor_id;sensor_type;location;lat;lon;timestamp;P1;durP1;ratioP1;P2;durP2;ratioP2
23614;SDS011;11985;49.404;7.734;2022-10-03T00:04:17;31.00;;;3.30;;
23614;SDS011;11985;49.404;7.734;2022-10-03T00:06:29;4.00;;;2.00;;
23614;SDS011;11985;49.404;7.734;2022-10-03T00:08:46;31.83;;;2.95;;
23614;SDS011;11985;49.404;7.734;2022-10-03T00:10:59;8.43;;;1.80;;
23614;SDS011;11985;49.404;7.734;2022-10-03T00:13:09;61.65;;;4.88;;
23614;SDS011;11985;49.404;7.734;2022-10-03T00:15:21;29.35;;;2.10;;
23614;SDS011;11985;49.404;7.734;2022-10-03T00:17:28;43.97;;;3.60;;
23614;SDS011;11985;49.404;7.734;2022-10-03T00:19:43;15.13;;;2.40;;
23614;SDS011;11985;49.404;7.734;2022-10-03T00:21:56;2.28;;;1.98;;
23614;SDS011;11985;49.404;7.734;2022-10-03T00:24:12;2.50;;;1.80;;
23614;SDS011;11985;49.404;7.734;2022-10-03T00:26:25;3.58;;;1.85;;
23614;SDS011;11985;49.404;7.734;2022-10-03T00:28:42;12.60;;;2.22;;
23614;SDS011;11985;49.404;7.734;2022-10-03T00:31:01;24.95;;;1.85;;
23614;SDS011;11985;49.404;7.734;2022-10-03T00:33:13;3.20;;;1.48;;
23614;SDS011;11985;49.404;7.734;2022-10-03T00:35:28;4.07;;;1.77;;
23614;SDS011;11985;49.404;7.734;2022-10-03T00:37:42;20.23;;;1.95;;
23614;SDS011;11985;49.404;7.734;2022-10-03T00:39:54;4.40;;;1.60;;
23614;SDS011;11985;49.404;7.734;2022-10-03T00:44:58;2.72;;;1.50;;
23614;SDS011;11985;49.404;7.734;2022-10-03T00:47:25;6.10;;;1.30;;
23614;SDS011;11985;49.404;7.734;2022-10-03T00:52:23;31.52;;;2.45;;
23614;SDS011;11985;49.404;7.734;2022-10-03T00:54:49;2.95;;;1.05;;
23614;SDS011;11985;49.404;7.734;2022-10-03T00:59:41;1.77;;;1.17;;
23614;SDS011;11985;49.404;7.734;2022-10-03T01:01:55;1.58;;;1.30;;
23614;SDS011;11985;49.404;7.734;2022-10-03T01:04:00;50.78;;;2.35;;
23614;SDS011;11985;49.404;7.734;2022-10-03T01:06:15;2.28;;;1.00;;
23614;SDS011;11985;49.404;7.734;2022-10-03T01:08:31;6.80;;;1.20;;
23614;SDS011;11985;49.404;7.734;2022-10-03T01:10:52;2.65;;;1.10;;
23614;SDS011;11985;49.404;7.734;2022-10-03T01:13:04;1.15;;;1.05;;
23614;SDS011;11985;49.404;7.734;2022-10-03T01:15:20;3.15;;;0.98;;
23614;SDS011;11985;49.404;7.734;2022-10-03T01:17:30;19.48;;;1.40;;
23614;SDS011;11985;49.404;7.734;2022-10-03T01:19:54;1.30;;;1.20;;
23614;SDS011;11985;49.404;7.734;2022-10-03T01:22:08;12.25;;;1.23;;
23614;SDS011;11985;49.404;7.734;2022-10-03T01:24:33;1.38;;;0.90;;
23614;SDS011;11985;49.404;7.734;2022-10-03T01:26:55;0.77;;;0.77;;
23614;SDS011;11985;49.404;7.734;2022-10-03T01:29:02;1.20;;;0.88;;
23614;SDS011;11985;49.404;7.734;2022-10-03T01:31:29;1.17;;;0.73;;
23614;SDS011;11985;49.404;7.734;2022-10-03T01:33:39;1.10;;;0.77;;
23614;SDS011;11985;49.404;7.734;2022-10-03T01:35:46;1.10;;;0.80;;
23614;SDS011;11985;49.404;7.734;2022-10-03T01:38:02;1.15;;;0.82;;
23614;SDS011;11985;49.404;7.734;2022-10-03T01:40:12;0.52;;;0.50;;
23614;SDS011;11985;49.404;7.734;2022-10-03T01:42:29;2.72;;;0.77;;
23614;SDS011;11985;49.404;7.734;2022-10-03T01:44:44;0.90;;;0.80;;
23614;SDS011;11985;49.404;7.734;2022-10-03T01:47:04;1.95;;;0.70;;
23614;SDS011;11985;49.404;7.734;2022-10-03T01:49:16;5.07;;;0.70;;
23614;SDS011;11985;49.404;7.734;2022-10-03T01:51:23;2.65;;;0.70;;
23614;SDS011;11985;49.404;7.734;2022-10-03T01:53:32;0.80;;;0.60;;
23614;SDS011;11985;49.404;7.734;2022-10-03T01:55:47;1.17;;;0.50;;
23614;SDS011;11985;49.404;7.734;2022-10-03T01:57:56;1.13;;;0.80;;
23614;SDS011;11985;49.404;7.734;2022-10-03T02:00:05;4.00;;;0.93;;
23614;SDS011;11985;49.404;7.734;2022-10-03T02:02:13;2.95;;;0.60;;
23614;SDS011;11985;49.404;7.734;2022-10-03T02:04:27;1.75;;;0.63;;
23614;SDS011;11985;49.404;7.734;2022-10-03T02:06:39;1.27;;;0.88;;
23614;SDS011;11985;49.404;7.734;2022-10-03T02:08:48;1.38;;;0.70;;
23614;SDS011;11985;49.404;7.734;2022-10-03T02:10:57;1.80;;;0.70;;
23614;SDS011;11985;49.404;7.734;2022-10-03T02:13:04;6.97;;;1.00;;
23614;SDS011;11985;49.404;7.734;2022-10-03T02:15:14;1.50;;;0.88;;
23614;SDS011;11985;49.404;7.734;2022-10-03T02:17:23;2.70;;;1.00;;
23614;SDS011;11985;49.404;7.734;2022-10-03T02:19:30;1.60;;;0.90;;
23614;SDS011;11985;49.404;7.734;2022-10-03T02:21:44;3.05;;;0.98;;
23614;SDS011;11985;49.404;7.734;2022-10-03T02:23:48;8.90;;;1.17;;
23614;SDS011;11985;49.404;7.734;2022-10-03T02:26:02;2.72;;;0.90;;
23614;SDS011;11985;49.404;7.734;2022-10-03T02:36:09;1.23;;;0.75;;
23614;SDS011;11985;49.404;7.734;2022-10-03T02:38:35;3.03;;;1.08;;
23614;SDS011;11985;49.404;7.734;2022-10-03T02:43:53;2.38;;;1.30;;
23614;SDS011;11985;49.404;7.734;2022-10-03T02:46:38;2.55;;;1.27;;
23614;SDS011;11985;49.404;7.734;2022-10-03T02:49:26;6.45;;;1.27;;
23614;SDS011;11985;49.404;7.734;2022-10-03T02:54:47;2.22;;;1.27;;
23614;SDS011;11985;49.404;7.734;2022-10-03T02:57:01;1.45;;;0.77;;
23614;SDS011;11985;49.404;7.734;2022-10-03T03:02:16;2.50;;;1.00;;
23614;SDS011;11985;49.404;7.734;2022-10-03T03:04:56;1.48;;;1.10;;
23614;SDS011;11985;49.404;7.734;2022-10-03T03:07:16;1.57;;;1.10;;
23614;SDS011;11985;49.404;7.734;2022-10-03T03:09:43;3.38;;;1.30;;
23614;SDS011;11985;49.404;7.734;2022-10-03T03:17:06;4.95;;;1.40;;
23614;SDS011;11985;49.404;7.734;2022-10-03T03:19:26;8.55;;;1.50;;
23614;SDS011;11985;49.404;7.734;2022-10-03T03:21:39;2.90;;;1.70;;
23614;SDS011;11985;49.404;7.734;2022-10-03T03:23:50;3.35;;;1.50;;
23614;SDS011;11985;49.404;7.734;2022-10-03T03:26:12;2.22;;;1.55;;
23614;SDS011;11985;49.404;7.734;2022-10-03T03:28:36;2.00;;;1.45;;
23614;SDS011;11985;49.404;7.734;2022-10-03T03:30:47;6.13;;;1.27;;
23614;SDS011;11985;49.404;7.734;2022-10-03T03:33:07;2.72;;;1.42;;
23614;SDS011;11985;49.404;7.734;2022-10-03T03:35:18;5.15;;;1.38;;
23614;SDS011;11985;49.404;7.734;2022-10-03T03:37:26;5.97;;;1.42;;
23614;SDS011;11985;49.404;7.734;2022-10-03T03:44:29;2.95;;;1.20;;
23614;SDS011;11985;49.404;7.734;2022-10-03T03:46:51;6.22;;;1.40;;
23614;SDS011;11985;49.404;7.734;2022-10-03T03:49:16;3.95;;;1.42;;
23614;SDS011;11985;49.404;7.734;2022-10-03T03:51:31;1.92;;;1.23;;
23614;SDS011;11985;49.404;7.734;2022-10-03T03:53:45;2.53;;;1.38;;
23614;SDS011;11985;49.404;7.734;2022-10-03T03:56:01;7.05;;;1.45;;
23614;SDS011;11985;49.404;7.734;2022-10-03T03:58:25;4.25;;;1.67;;
23614;SDS011;11985;49.404;7.734;2022-10-03T04:00:39;9.73;;;1.88;;
23614;SDS011;11985;49.404;7.734;2022-10-03T04:02:57;5.90;;;1.52;;
23614;SDS011;11985;49.404;7.734;2022-10-03T04:05:12;6.72;;;2.10;;
23614;SDS011;11985;49.404;7.734;2022-10-03T04:07:31;7.28;;;1.77;;
23614;SDS011;11985;49.404;7.734;2022-10-03T04:09:47;5.28;;;1.70;;
23614;SDS011;11985;49.404;7.734;2022-10-03T04:12:01;6.97;;;2.28;;
23614;SDS011;11985;49.404;7.734;2022-10-03T04:16:57;4.55;;;2.00;;
23614;SDS011;11985;49.404;7.734;2022-10-03T04:19:27;5.85;;;2.25;;
23614;SDS011;11985;49.404;7.734;2022-10-03T04:21:55;10.07;;;2.95;;
23614;SDS011;11985;49.404;7.734;2022-10-03T04:26:28;3.28;;;2.20;;
23614;SDS011;11985;49.404;7.734;2022-10-03T04:28:45;6.35;;;2.35;;
23614;SDS011;11985;49.404;7.734;2022-10-03T04:31:00;4.90;;;2.63;;
23614;SDS011;11985;49.404;7.734;2022-10-03T04:33:16;8.55;;;2.83;;
23614;SDS011;11985;49.404;7.734;2022-10-03T04:35:42;7.15;;;2.70;;
23614;SDS011;11985;49.404;7.734;2022-10-03T04:38:22;5.78;;;2.28;;
23614;SDS011;11985;49.404;7.734;2022-10-03T04:40:42;3.17;;;1.55;;
23614;SDS011;11985;49.404;7.734;2022-10-03T04:42:56;3.00;;;2.05;;
23614;SDS011;11985;49.404;7.734;2022-10-03T04:45:17;13.13;;;1.80;;
23614;SDS011;11985;49.404;7.734;2022-10-03T04:47:30;5.53;;;1.70;;
23614;SDS011;11985;49.404;7.734;2022-10-03T04:49:36;6.32;;;1.58;;
23614;SDS011;11985;49.404;7.734;2022-10-03T04:51:45;2.58;;;1.83;;
23614;SDS011;11985;49.404;7.734;2022-10-03T04:53:54;7.80;;;1.92;;
23614;SDS011;11985;49.404;7.734;2022-10-03T04:56:08;7.32;;;1.52;;
23614;SDS011;11985;49.404;7.734;2022-10-03T04:58:20;3.28;;;1.45;;
23614;SDS011;11985;49.404;7.734;2022-10-03T05:00:32;4.28;;;1.30;;
23614;SDS011;11985;49.404;7.734;2022-10-03T05:02:49;3.22;;;1.50;;
23614;SDS011;11985;49.404;7.734;2022-10-03T05:05:07;6.00;;;1.38;;
23614;SDS011;11985;49.404;7.734;2022-10-03T05:07:19;2.42;;;1.55;;
23614;SDS011;11985;49.404;7.734;2022-10-03T05:09:30;5.28;;;1.77;;
23614;SDS011;11985;49.404;7.734;2022-10-03T05:11:44;2.35;;;1.60;;
23614;SDS011;11985;49.404;7.734;2022-10-03T05:13:58;4.38;;;1.27;;
23614;SDS011;11985;49.404;7.734;2022-10-03T05:16:07;2.15;;;1.15;;
23614;SDS011;11985;49.404;7.734;2022-10-03T05:18:17;1.35;;;1.08;;
23614;SDS011;11985;49.404;7.734;2022-10-03T05:20:28;4.75;;;1.23;;
23614;SDS011;11985;49.404;7.734;2022-10-03T05:22:45;2.65;;;1.45;;
23614;SDS011;11985;49.404;7.734;2022-10-03T05:24:56;2.10;;;1.50;;
23614;SDS011;11985;49.404;7.734;2022-10-03T05:27:06;4.85;;;1.65;;
23614;SDS011;11985;49.404;7.734;2022-10-03T05:29:19;4.50;;;1.95;;
23614;SDS011;11985;49.404;7.734;2022-10-03T05:31:30;3.72;;;1.85;;
23614;SDS011;11985;49.404;7.734;2022-10-03T05:33:45;3.08;;;1.67;;
23614;SDS011;11985;49.404;7.734;2022-10-03T05:35:59;6.57;;;1.95;;
23614;SDS011;11985;49.404;7.734;2022-10-03T05:38:12;4.57;;;1.90;;
23614;SDS011;11985;49.404;7.734;2022-10-03T05:40:27;4.10;;;1.90;;
23614;SDS011;11985;49.404;7.734;2022-10-03T05:42:35;5.95;;;2.17;;
23614;SDS011;11985;49.404;7.734;2022-10-03T05:44:48;3.40;;;2.17;;
23614;SDS011;11985;49.404;7.734;2022-10-03T05:47:01;3.22;;;2.03;;
23614;SDS011;11985;49.404;7.734;2022-10-03T05:49:48;4.43;;;2.40;;
23614;SDS011;11985;49.404;7.734;2022-10-03T05:52:20;3.10;;;2.15;;
23614;SDS011;11985;49.404;7.734;2022-10-03T05:57:13;6.05;;;3.13;;
23614;SDS011;11985;49.404;7.734;2022-10-03T05:59:44;12.65;;;2.88;;
23614;SDS011;11985;49.404;7.734;2022-10-03T06:02:03;9.60;;;4.13;;
23614;SDS011;11985;49.404;7.734;2022-10-03T06:04:30;8.77;;;3.83;;
23614;SDS011;11985;49.404;7.734;2022-10-03T06:06:47;16.67;;;4.25;;
23614;SDS011;11985;49.404;7.734;2022-10-03T06:09:11;11.85;;;3.90;;
23614;SDS011;11985;49.404;7.734;2022-10-03T06:11:40;17.38;;;4.35;;
23614;SDS011;11985;49.404;7.734;2022-10-03T06:14:07;10.05;;;4.82;;
23614;SDS011;11985;49.404;7.734;2022-10-03T06:16:28;21.13;;;5.13;;
23614;SDS011;11985;49.404;7.734;2022-10-03T06:21:19;11.52;;;5.88;;
23614;SDS011;11985;49.404;7.734;2022-10-03T06:26:21;11.73;;;4.57;;
23614;SDS011;11985;49.404;7.734;2022-10-03T06:28:42;7.18;;;4.38;;
23614;SDS011;11985;49.404;7.734;2022-10-03T06:33:55;19.58;;;4.47;;
23614;SDS011;11985;49.404;7.734;2022-10-03T06:36:28;12.75;;;4.70;;
23614;SDS011;11985;49.404;7.734;2022-10-03T06:44:10;6.97;;;3.60;;
23614;SDS011;11985;49.404;7.734;2022-10-03T06:49:12;27.85;;;3.72;;
23614;SDS011;11985;49.404;7.734;2022-10-03T06:54:11;21.17;;;5.70;;
23614;SDS011;11985;49.404;7.734;2022-10-03T06:56:39;17.75;;;5.20;;
23614;SDS011;11985;49.404;7.734;2022-10-03T06:59:08;10.43;;;5.22;;
23614;SDS011;11985;49.404;7.734;2022-10-03T07:12:40;74.30;;;7.07;;
23614;SDS011;11985;49.404;7.734;2022-10-03T07:15:04;106.30;;;7.25;;
23614;SDS011;11985;49.404;7.734;2022-10-03T07:19:53;128.73;;;8.30;;
23614;SDS011;11985;49.404;7.734;2022-10-03T07:27:42;64.93;;;5.85;;
23614;SDS011;11985;49.404;7.734;2022-10-03T07:29:57;33.42;;;5.00;;
23614;SDS011;11985;49.404;7.734;2022-10-03T07:32:18;80.82;;;9.40;;
23614;SDS011;11985;49.404;7.734;2022-10-03T07:37:10;29.55;;;15.40;;
23614;SDS011;11985;49.404;7.734;2022-10-03T07:40:00;41.97;;;7.55;;
23614;SDS011;11985;49.404;7.734;2022-10-03T07:42:29;53.30;;;5.03;;
23614;SDS011;11985;49.404;7.734;2022-10-03T07:45:06;27.98;;;5.32;;
23614;SDS011;11985;49.404;7.734;2022-10-03T07:52:55;18.42;;;4.70;;
23614;SDS011;11985;49.404;7.734;2022-10-03T07:55:17;15.65;;;3.80;;
23614;SDS011;11985;49.404;7.734;2022-10-03T07:57:38;16.63;;;4.50;;
23614;SDS011;11985;49.404;7.734;2022-10-03T08:00:16;16.02;;;5.03;;
23614;SDS011;11985;49.404;7.734;2022-10-03T08:02:36;12.07;;;3.42;;
23614;SDS011;11985;49.404;7.734;2022-10-03T08:05:04;72.65;;;5.13;;
23614;SDS011;11985;49.404;7.734;2022-10-03T08:07:27;84.47;;;4.78;;
23614;SDS011;11985;49.404;7.734;2022-10-03T08:09:51;85.55;;;5.72;;
23614;SDS011;11985;49.404;7.734;2022-10-03T08:14:54;59.60;;;8.30;;
23614;SDS011;11985;49.404;7.734;2022-10-03T08:17:18;157.82;;;10.10;;
23614;SDS011;11985;49.404;7.734;2022-10-03T08:19:41;13.95;;;5.60;;
23614;SDS011;11985;49.404;7.734;2022-10-03T08:22:03;12.93;;;5.35;;
23614;SDS011;11985;49.404;7.734;2022-10-03T08:24:23;24.75;;;7.57;;
23614;SDS011;11985;49.404;7.734;2022-10-03T08:26:41;34.30;;;9.32;;
23614;SDS011;11985;49.404;7.734;2022-10-03T08:34:12;80.57;;;10.32;;
23614;SDS011;11985;49.404;7.734;2022-10-03T08:38:48;23.33;;;8.68;;
23614;SDS011;11985;49.404;7.734;2022-10-03T08:46:28;40.67;;;7.72;;
23614;SDS011;11985;49.404;7.734;2022-10-03T08:49:12;33.00;;;8.57;;
23614;SDS011;11985;49.404;7.734;2022-10-03T08:51:42;27.92;;;9.85;;
23614;SDS011;11985;49.404;7.734;2022-10-03T08:54:08;20.75;;;10.10;;
23614;SDS011;11985;49.404;7.734;2022-10-03T08:56:26;22.92;;;10.70;;
23614;SDS011;11985;49.404;7.734;2022-10-03T09:12:05;66.78;;;6.57;;
23614;SDS011;11985;49.404;7.734;2022-10-03T09:14:40;89.35;;;7.53;;
23614;SDS011;11985;49.404;7.734;2022-10-03T09:19:46;74.38;;;7.65;;
23614;SDS011;11985;49.404;7.734;2022-10-03T09:22:14;18.70;;;6.32;;
23614;SDS011;11985;49.404;7.734;2022-10-03T09:24:35;14.93;;;7.70;;
23614;SDS011;11985;49.404;7.734;2022-10-03T09:27:17;17.83;;;8.27;;
23614;SDS011;11985;49.404;7.734;2022-10-03T09:32:28;18.70;;;8.60;;
23614;SDS011;11985;49.404;7.734;2022-10-03T09:35:27;13.45;;;7.45;;
23614;SDS011;11985;49.404;7.734;2022-10-03T09:37:50;18.27;;;7.88;;
23614;SDS011;11985;49.404;7.734;2022-10-03T09:40:18;14.88;;;8.00;;
23614;SDS011;11985;49.404;7.734;2022-10-03T09:45:47;16.10;;;9.32;;
23614;SDS011;11985;49.404;7.734;2022-10-03T09:48:18;15.63;;;9.63;;
23614;SDS011;11985;49.404;7.734;2022-10-03T09:55:41;22.02;;;9.60;;
23614;SDS011;11985;49.404;7.734;2022-10-03T09:58:03;15.38;;;8.68;;
23614;SDS011;11985;49.404;7.734;2022-10-03T10:00:20;13.82;;;8.95;;
23614;SDS011;11985;49.404;7.734;2022-10-03T10:05:09;15.82;;;8.20;;
23614;SDS011;11985;49.404;7.734;2022-10-03T10:07:41;20.02;;;9.45;;
23614;SDS011;11985;49.404;7.734;2022-10-03T10:10:14;18.30;;;7.88;;
23614;SDS011;11985;49.404;7.734;2022-10-03T10:12:46;13.00;;;7.05;;
23614;SDS011;11985;49.404;7.734;2022-10-03T10:23:19;19.52;;;7.03;;
23614;SDS011;11985;49.404;7.734;2022-10-03T10:25:56;13.70;;;6.30;;
23614;SDS011;11985;49.404;7.734;2022-10-03T10:40:06;17.42;;;7.85;;
23614;SDS011;11985;49.404;7.734;2022-10-03T10:45:23;18.45;;;8.15;;
23614;SDS011;11985;49.404;7.734;2022-10-03T10:50:52;12.55;;;7.50;;
23614;SDS011;11985;49.404;7.734;2022-10-03T10:58:49;12.00;;;5.60;;
23614;SDS011;11985;49.404;7.734;2022-10-03T11:01:35;19.13;;;6.88;;
23614;SDS011;11985;49.404;7.734;2022-10-03T11:06:58;17.10;;;6.07;;
23614;SDS011;11985;49.404;7.734;2022-10-03T11:09:23;11.32;;;6.97;;
23614;SDS011;11985;49.404;7.734;2022-10-03T11:17:15;11.75;;;5.35;;
23614;SDS011;11985;49.404;7.734;2022-10-03T11:19:46;15.93;;;4.88;;
23614;SDS011;11985;49.404;7.734;2022-10-03T11:22:31;14.98;;;4.40;;
23614;SDS011;11985;49.404;7.734;2022-10-03T11:28:25;10.50;;;4.90;;
23614;SDS011;11985;49.404;7.734;2022-10-03T11:30:59;16.25;;;7.25;;
23614;SDS011;11985;49.404;7.734;2022-10-03T11:36:13;9.38;;;4.07;;
23614;SDS011;11985;49.404;7.734;2022-10-03T11:38:39;16.17;;;4.78;;
23614;SDS011;11985;49.404;7.734;2022-10-03T11:40:52;15.88;;;5.60;;
23614;SDS011;11985;49.404;7.734;2022-10-03T11:43:23;9.55;;;4.20;;
23614;SDS011;11985;49.404;7.734;2022-10-03T11:45:43;14.50;;;4.78;;
23614;SDS011;11985;49.404;7.734;2022-10-03T11:47:51;11.55;;;5.28;;
23614;SDS011;11985;49.404;7.734;2022-10-03T11:50:04;26.92;;;10.70;;
23614;SDS011;11985;49.404;7.734;2022-10-03T11:52:24;16.08;;;5.35;;
23614;SDS011;11985;49.404;7.734;2022-10-03T11:54:31;8.63;;;3.53;;
23614;SDS011;11985;49.404;7.734;2022-10-03T11:56:39;9.45;;;4.93;;
23614;SDS011;11985;49.404;7.734;2022-10-03T11:58:50;12.98;;;4.03;;
23614;SDS011;11985;49.404;7.734;2022-10-03T12:01:17;12.80;;;4.78;;
23614;SDS011;11985;49.404;7.734;2022-10-03T12:03:29;12.05;;;3.33;;
23614;SDS011;11985;49.404;7.734;2022-10-03T12:05:42;8.98;;;3.22;;
23614;SDS011;11985;49.404;7.734;2022-10-03T12:07:53;8.32;;;3.17;;
23614;SDS011;11985;49.404;7.734;2022-10-03T12:10:44;8.90;;;3.05;;
23614;SDS011;11985;49.404;7.734;2022-10-03T12:12:56;6.20;;;2.75;;
23614;SDS011;11985;49.404;7.734;2022-10-03T12:15:00;11.00;;;4.85;;
23614;SDS011;11985;49.404;7.734;2022-10-03T12:17:16;5.82;;;2.63;;
23614;SDS011;11985;49.404;7.734;2022-10-03T12:19:26;7.18;;;2.67;;
23614;SDS011;11985;49.404;7.734;2022-10-03T12:21:37;8.77;;;3.00;;
23614;SDS011;11985;49.404;7.734;2022-10-03T12:23:55;8.20;;;3.38;;
23614;SDS011;11985;49.404;7.734;2022-10-03T12:26:16;8.55;;;2.55;;
23614;SDS011;11985;49.404;7.734;2022-10-03T12:28:28;9.93;;;3.95;;
23614;SDS011;11985;49.404;7.734;2022-10-03T12:30:36;7.70;;;2.08;;
23614;SDS011;11985;49.404;7.734;2022-10-03T12:32:45;6.20;;;1.88;;
23614;SDS011;11985;49.404;7.734;2022-10-03T12:35:03;5.18;;;1.95;;
23614;SDS011;11985;49.404;7.734;2022-10-03T12:37:21;5.63;;;2.22;;
23614;SDS011;11985;49.404;7.734;2022-10-03T12:39:43;6.85;;;2.05;;
23614;SDS011;11985;49.404;7.734;2022-10-03T12:42:04;9.40;;;2.70;;
23614;SDS011;11985;49.404;7.734;2022-10-03T12:44:19;10.05;;;3.05;;
23614;SDS011;11985;49.404;7.734;2022-10-03T12:46:33;6.28;;;2.90;;
23614;SDS011;11985;49.404;7.734;2022-10-03T12:48:44;7.60;;;3.20;;
23614;SDS011;11985;49.404;7.734;2022-10-03T12:50:52;4.28;;;2.50;;
23614;SDS011;11985;49.404;7.734;2022-10-03T12:53:04;9.65;;;2.95;;
23614;SDS011;11985;49.404;7.734;2022-10-03T12:55:24;8.02;;;3.22;;
23614;SDS011;11985;49.404;7.734;2022-10-03T12:57:38;11.40;;;3.53;;
23614;SDS011;11985;49.404;7.734;2022-10-03T12:59:48;8.50;;;2.70;;
23614;SDS011;11985;49.404;7.734;2022-10-03T13:04:24;6.60;;;2.63;;
23614;SDS011;11985;49.404;7.734;2022-10-03T13:06:38;6.47;;;3.10;;
23614;SDS011;11985;49.404;7.734;2022-10-03T13:08:55;6.47;;;2.47;;
23614;SDS011;11985;49.404;7.734;2022-10-03T13:11:16;7.68;;;3.15;;
23614;SDS011;11985;49.404;7.734;2022-10-03T13:13:30;4.63;;;2.55;;
23614;SDS011;11985;49.404;7.734;2022-10-03T13:18:03;7.75;;;3.13;;
23614;SDS011;11985;49.404;7.734;2022-10-03T13:20:20;10.27;;;2.95;;
23614;SDS011;11985;49.404;7.734;2022-10-03T13:22:31;6.28;;;3.17;;
23614;SDS011;11985;49.404;7.734;2022-10-03T13:26:51;6.63;;;2.65;;
23614;SDS011;11985;49.404;7.734;2022-10-03T13:31:26;8.32;;;3.20;;
23614;SDS011;11985;49.404;7.734;2022-10-03T13:33:33;11.48;;;3.30;;
23614;SDS011;11985;49.404;7.734;2022-10-03T13:35:42;10.38;;;3.58;;
23614;SDS011;11985;49.404;7.734;2022-10-03T13:38:03;10.57;;;3.50;;
23614;SDS011;11985;49.404;7.734;2022-10-03T13:40:15;10.80;;;3.25;;
23614;SDS011;11985;49.404;7.734;2022-10-03T13:42:19;10.13;;;3.50;;
23614;SDS011;11985;49.404;7.734;2022-10-03T13:44:33;11.15;;;3.40;;
23614;SDS011;11985;49.404;7.734;2022-10-03T13:46:40;6.47;;;3.50;;
23614;SDS011;11985;49.404;7.734;2022-10-03T13:48:49;5.63;;;2.80;;
23614;SDS011;11985;49.404;7.734;2022-10-03T13:50:59;6.28;;;3.30;;
23614;SDS011;11985;49.404;7.734;2022-10-03T13:53:06;9.52;;;3.75;;
23614;SDS011;11985;49.404;7.734;2022-10-03T13:55:25;6.53;;;3.55;;
23614;SDS011;11985;49.404;7.734;2022-10-03T13:57:33;6.72;;;3.30;;
23614;SDS011;11985;49.404;7.734;2022-10-03T13:59:52;6.97;;;2.92;;
23614;SDS011;11985;49.404;7.734;2022-10-03T14:02:04;7.65;;;3.20;;
23614;SDS011;11985;49.404;7.734;2022-10-03T14:04:27;7.90;;;2.85;;
23614;SDS011;11985;49.404;7.734;2022-10-03T14:06:37;3.67;;;2.58;;
23614;SDS011;11985;49.404;7.734;2022-10-03T14:08:52;7.47;;;2.90;;
23614;SDS011;11985;49.404;7.734;2022-10-03T14:11:13;7.47;;;2.72;;
23614;SDS011;11985;49.404;7.734;2022-10-03T14:13:23;6.75;;;2.95;;
23614;SDS011;11985;49.404;7.734;2022-10-03T14:15:36;5.20;;;2.67;;
23614;SDS011;11985;49.404;7.734;2022-10-03T14:17:47;7.15;;;3.08;;
23614;SDS011;11985;49.404;7.734;2022-10-03T14:20:01;8.00;;;2.90;;
23614;SDS011;11985;49.404;7.734;2022-10-03T14:22:13;4.90;;;2.45;;
23614;SDS011;11985;49.404;7.734;2022-10-03T14:24:35;8.88;;;2.90;;
23614;SDS011;11985;49.404;7.734;2022-10-03T14:26:48;6.72;;;3.03;;
23614;SDS011;11985;49.404;7.734;2022-10-03T14:28:55;8.10;;;3.05;;
23614;SDS011;11985;49.404;7.734;2022-10-03T14:31:05;4.50;;;2.33;;
23614;SDS011;11985;49.404;7.734;2022-10-03T14:33:17;5.63;;;2.93;;
23614;SDS011;11985;49.404;7.734;2022-10-03T14:35:27;6.82;;;3.17;;
23614;SDS011;11985;49.404;7.734;2022-10-03T14:37:39;8.48;;;3.65;;
23614;SDS011;11985;49.404;7.734;2022-10-03T14:39:46;8.57;;;3.20;;
23614;SDS011;11985;49.404;7.734;2022-10-03T14:42:20;8.20;;;3.38;;
23614;SDS011;11985;49.404;7.734;2022-10-03T14:46:39;6.88;;;3.40;;
23614;SDS011;11985;49.404;7.734;2022-10-03T14:48:44;8.27;;;2.97;;
23614;SDS011;11985;49.404;7.734;2022-10-03T14:50:51;7.47;;;2.80;;
23614;SDS011;11985;49.404;7.734;2022-10-03T14:52:56;6.18;;;3.05;;
23614;SDS011;11985;49.404;7.734;2022-10-03T14:55:05;11.43;;;3.10;;
23614;SDS011;11985;49.404;7.734;2022-10-03T14:57:13;6.38;;;3.28;;
23614;SDS011;11985;49.404;7.734;2022-10-03T14:59:25;12.88;;;3.40;;
23614;SDS011;11985;49.404;7.734;2022-10-03T15:01:32;6.78;;;3.00;;
23614;SDS011;11985;49.404;7.734;2022-10-03T15:03:35;7.72;;;2.90;;
23614;SDS011;11985;49.404;7.734;2022-10-03T15:05:50;4.85;;;2.88;;
23614;SDS011;11985;49.404;7.734;2022-10-03T15:08:00;10.07;;;4.20;;
23614;SDS011;11985;49.404;7.734;2022-10-03T15:10:12;6.82;;;2.92;;
23614;SDS011;11985;49.404;7.734;2022-10-03T15:12:19;4.82;;;2.60;;
23614;SDS011;11985;49.404;7.734;2022-10-03T15:14:27;8.80;;;3.17;;
23614;SDS011;11985;49.404;7.734;2022-10-03T15:16:33;6.22;;;2.90;;
23614;SDS011;11985;49.404;7.734;2022-10-03T15:18:39;8.23;;;2.85;;
23614;SDS011;11985;49.404;7.734;2022-10-03T15:22:55;13.32;;;2.65;;
23614;SDS011;11985;49.404;7.734;2022-10-03T15:25:02;9.60;;;3.15;;
23614;SDS011;11985;49.404;7.734;2022-10-03T15:27:07;5.47;;;2.60;;
23614;SDS011;11985;49.404;7.734;2022-10-03T15:29:20;5.90;;;2.78;;
23614;SDS011;11985;49.404;7.734;2022-10-03T15:31:27;6.82;;;2.75;;
23614;SDS011;11985;49.404;7.734;2022-10-03T15:33:34;5.20;;;2.55;;
23614;SDS011;11985;49.404;7.734;2022-10-03T15:35:38;26.67;;;3.17;;
23614;SDS011;11985;49.404;7.734;2022-10-03T15:37:43;7.75;;;2.63;;
23614;SDS011;11985;49.404;7.734;2022-10-03T15:39:44;5.47;;;2.67;;
23614;SDS011;11985;49.404;7.734;2022-10-03T15:41:50;7.50;;;2.78;;
23614;SDS011;11985;49.404;7.734;2022-10-03T15:43:56;7.68;;;3.17;;
23614;SDS011;11985;49.404;7.734;2022-10-03T15:46:05;9.65;;;3.17;;
23614;SDS011;11985;49.404;7.734;2022-10-03T15:48:15;6.80;;;2.40;;
23614;SDS011;11985;49.404;7.734;2022-10-03T15:50:21;7.97;;;2.30;;
23614;SDS011;11985;49.404;7.734;2022-10-03T15:52:29;5.40;;;2.10;;
23614;SDS011;11985;49.404;7.734;2022-10-03T15:54:36;5.78;;;2.75;;
23614;SDS011;11985;49.404;7.734;2022-10-03T15:56:38;7.22;;;2.40;;
23614;SDS011;11985;49.404;7.734;2022-10-03T15:58:45;7.43;;;2.30;;
23614;SDS011;11985;49.404;7.734;2022-10-03T16:00:51;6.38;;;2.60;;
23614;SDS011;11985;49.404;7.734;2022-10-03T16:03:10;6.88;;;2.60;;
23614;SDS011;11985;49.404;7.734;2022-10-03T16:05:15;7.97;;;2.67;;
23614;SDS011;11985;49.404;7.734;2022-10-03T16:07:22;6.75;;;2.97;;
23614;SDS011;11985;49.404;7.734;2022-10-03T16:09:29;11.90;;;3.38;;
23614;SDS011;11985;49.404;7.734;2022-10-03T16:11:37;8.93;;;3.15;;
23614;SDS011;11985;49.404;7.734;2022-10-03T16:13:44;8.70;;;3.13;;
23614;SDS011;11985;49.404;7.734;2022-10-03T16:15:56;5.30;;;3.00;;
23614;SDS011;11985;49.404;7.734;2022-10-03T16:18:39;12.00;;;3.25;;
23614;SDS011;11985;49.404;7.734;2022-10-03T16:20:48;9.40;;;3.00;;
23614;SDS011;11985;49.404;7.734;2022-10-03T16:22:56;10.52;;;3.50;;
23614;SDS011;11985;49.404;7.734;2022-10-03T16:25:04;7.35;;;3.50;;
23614;SDS011;11985;49.404;7.734;2022-10-03T16:27:11;12.18;;;3.65;;
23614;SDS011;11985;49.404;7.734;2022-10-03T16:29:18;6.63;;;2.97;;
23614;SDS011;11985;49.404;7.734;2022-10-03T16:31:23;10.95;;;3.70;;
23614;SDS011;11985;49.404;7.734;2022-10-03T16:33:27;6.60;;;3.50;;
23614;SDS011;11985;49.404;7.734;2022-10-03T16:35:35;7.32;;;3.72;;
23614;SDS011;11985;49.404;7.734;2022-10-03T16:37:41;8.93;;;3.58;;
23614;SDS011;11985;49.404;7.734;2022-10-03T16:39:52;11.20;;;3.85;;
23614;SDS011;11985;49.404;7.734;2022-10-03T16:41:59;8.93;;;3.60;;
23614;SDS011;11985;49.404;7.734;2022-10-03T16:44:16;10.07;;;4.82;;
23614;SDS011;11985;49.404;7.734;2022-10-03T16:46:19;11.77;;;4.25;;
23614;SDS011;11985;49.404;7.734;2022-10-03T16:48:24;8.40;;;4.18;;
23614;SDS011;11985;49.404;7.734;2022-10-03T16:50:48;14.15;;;4.47;;
23614;SDS011;11985;49.404;7.734;2022-10-03T16:52:53;11.65;;;4.13;;
23614;SDS011;11985;49.404;7.734;2022-10-03T16:54:58;6.68;;;4.18;;